LiveATC.Net - Listen to live air traffic control over the Internet!


ICAO: LZKZ  IATA: KSC   Airport: Kosice International Airport
City: Kosice
Country: Slovakia   Continent: Europe
LZKZ METAR Weather: LZKZ 170800Z VRB01KT 2200 BR OVC004 M03/M04 Q0997 NOSIG
LZKZ Flight Activity (FlightAware)
LZKZ Gnd/Twr/App
Feed Status: UP   Listeners: 2
Listen right in your browser - requires Flash (in browser, requires Flash)
Click here to listen with your own player (launches your MP3 player)
FacilityFrequency
Kosice Approach119.850
Kosice Ground121.700
Kosice Handling131.850
Kosice Tower120.400


NOTICE

Unauthorized use prohibited. See LiveATC.net Terms of Service


Find LiveATC Audio Streams


Airport/ARTCC Code

Frequency Search
(e.g., 124.400, 128.75)
Site-wide search
 


Browse LiveATC Feeds
LiveATC Coverage Map
Top 50 LiveATC Feeds
Bad Weather Areas

LiveATC FAQ
Offer a LiveATC Feed
Contact LiveATC.net
Press Inquiries

LiveATC on iPhone
LiveATC on Android

Windows Phone
Windows 8/10

LiveATC Mobile
(Mobile browser)

ATC Audio Archives
Interesting Recordings

LiveATC Forums


Home Page
About LiveATC.net
Make a Donation
Terms of Use
Privacy Policy

Canadian Air Freqs

AIRMETs/SIGMETs

FAA Airport Status
Nat'l Airspace Status
Arrival Demand Charts


Server Software By:
Icecast.org
Liquidsoap